createdAt,value
2023-08-04T00:00:17.867Z,8.07
2023-08-04T00:04:20.755Z,7.65
2023-08-04T00:08:23.986Z,7.90
2023-08-04T00:12:27.002Z,8.23
2023-08-04T00:16:29.941Z,7.95
2023-08-04T00:20:32.974Z,8.07
2023-08-04T00:24:36.299Z,8.75
2023-08-04T00:28:39.049Z,9.20
2023-08-04T00:32:42.178Z,8.35
2023-08-04T00:36:50.728Z,8.90
2023-08-04T00:40:54.503Z,8.45
2023-08-04T00:44:57.357Z,8.60
2023-08-04T00:49:01.675Z,8.60
2023-08-04T00:53:04.645Z,8.43
2023-08-04T00:57:07.561Z,8.07
2023-08-04T01:01:10.485Z,7.65
2023-08-04T01:05:13.441Z,8.95
2023-08-04T01:09:36.621Z,8.13
2023-08-04T01:13:41.184Z,7.55
2023-08-04T01:17:45.344Z,7.82
2023-08-04T01:21:48.440Z,7.80
2023-08-04T01:25:51.641Z,7.00
2023-08-04T01:29:57.349Z,7.97
2023-08-04T01:34:00.437Z,7.95
2023-08-04T01:38:03.694Z,7.22
2023-08-04T01:42:06.874Z,7.53
2023-08-04T01:46:09.671Z,7.25
2023-08-04T01:50:12.605Z,7.57
2023-08-04T01:54:15.603Z,7.60
2023-08-04T01:58:18.579Z,7.07
2023-08-04T02:02:22.482Z,8.38
2023-08-04T02:06:25.846Z,7.18
2023-08-04T02:10:28.865Z,8.15
2023-08-04T02:14:31.691Z,8.02
2023-08-04T02:18:34.609Z,7.90
2023-08-04T02:22:37.456Z,8.15
2023-08-04T02:26:40.382Z,8.90
2023-08-04T02:30:44.595Z,9.02
2023-08-04T02:34:47.490Z,8.82
2023-08-04T02:38:50.406Z,9.05
2023-08-04T02:42:53.622Z,9.73
2023-08-04T02:46:56.404Z,9.50
2023-08-04T02:51:09.450Z,10.02
2023-08-04T02:55:13.655Z,10.38
2023-08-04T02:59:16.539Z,10.20
2023-08-04T03:03:19.857Z,9.52
2023-08-04T03:07:22.747Z,9.10
2023-08-04T03:11:26.869Z,8.68
2023-08-04T03:15:30.307Z,8.05
2023-08-04T03:19:33.225Z,7.90
2023-08-04T03:23:36.443Z,7.57
2023-08-04T03:27:39.306Z,7.47
2023-08-04T03:31:42.198Z,7.22
2023-08-04T03:35:45.130Z,7.43
2023-08-04T03:39:48.630Z,6.72
2023-08-04T03:43:51.457Z,6.95
2023-08-04T03:47:54.385Z,6.82
2023-08-04T03:51:57.332Z,6.40
2023-08-04T03:56:00.084Z,7.35
2023-08-04T04:00:04.904Z,7.85
2023-08-04T04:04:14.735Z,7.45
2023-08-04T04:08:17.824Z,7.35
2023-08-04T04:12:20.606Z,8.32
2023-08-04T04:16:23.543Z,8.18
2023-08-04T04:20:26.390Z,8.68
2023-08-04T04:24:31.067Z,9.25
2023-08-04T04:28:35.465Z,10.15
2023-08-04T04:32:38.322Z,9.95
2023-08-04T04:36:43.631Z,8.75
2023-08-04T04:41:03.135Z,10.63
2023-08-04T04:45:38.781Z,9.60
2023-08-04T04:49:44.148Z,10.52
2023-08-04T04:53:47.601Z,10.82
2023-08-04T04:57:50.397Z,10.35
2023-08-04T05:01:53.259Z,11.77
2023-08-04T05:05:56.050Z,10.82
2023-08-04T05:10:02.468Z,11.20
2023-08-04T05:18:10.494Z,9.23
2023-08-04T05:22:13.632Z,10.77
2023-08-04T05:26:16.529Z,6.97
2023-08-04T05:30:19.735Z,5.00
2023-08-04T05:34:23.977Z,5.43
2023-08-04T05:38:34.481Z,4.65
2023-08-04T05:42:38.971Z,5.63
2023-08-04T05:46:41.944Z,6.60
2023-08-04T05:50:45.929Z,5.72
2023-08-04T05:54:57.415Z,6.15
2023-08-04T05:59:01.355Z,6.13
2023-08-04T06:03:10.103Z,4.85
2023-08-04T06:07:12.876Z,5.30
2023-08-04T06:11:16.100Z,4.90
2023-08-04T06:15:19.441Z,5.15
2023-08-04T06:19:22.503Z,5.45
2023-08-04T06:23:25.640Z,6.07
2023-08-04T06:27:28.508Z,5.80
2023-08-04T06:31:31.289Z,5.38
2023-08-04T06:35:34.122Z,5.65
2023-08-04T06:39:37.279Z,5.20
2023-08-04T06:43:40.152Z,8.07
2023-08-04T06:47:43.247Z,10.75
2023-08-04T06:51:47.215Z,3.80
2023-08-04T06:55:52.833Z,4.22
2023-08-04T06:59:58.139Z,3.95
2023-08-04T07:04:02.800Z,3.97
2023-08-04T07:08:06.165Z,4.10
2023-08-04T07:12:12.394Z,4.10
2023-08-04T07:16:16.440Z,4.17
2023-08-04T07:20:19.331Z,3.65
2023-08-04T07:24:26.251Z,5.10
2023-08-04T07:28:30.002Z,6.60
2023-08-04T07:32:32.982Z,5.95
2023-08-04T07:36:36.498Z,4.55
2023-08-04T07:40:40.424Z,4.05
2023-08-04T07:44:43.308Z,3.33
2023-08-04T07:48:46.289Z,3.42
2023-08-04T07:52:49.606Z,3.38
2023-08-04T07:56:52.880Z,3.28
2023-08-04T08:00:56.085Z,3.25
2023-08-04T08:05:03.601Z,2.58
2023-08-04T08:09:08.756Z,3.03
2023-08-04T08:13:12.756Z,3.42
2023-08-04T08:17:15.858Z,3.60
2023-08-04T08:21:18.707Z,3.50
2023-08-04T08:25:26.568Z,3.60
2023-08-04T08:29:29.517Z,3.53
2023-08-04T08:33:33.425Z,3.45
2023-08-04T08:37:36.868Z,4.00
2023-08-04T08:41:43.290Z,4.28
2023-08-04T08:49:56.507Z,3.33
2023-08-04T08:54:00.787Z,3.63
2023-08-04T08:58:05.027Z,3.55
2023-08-04T09:02:08.529Z,3.70
2023-08-04T09:06:11.674Z,4.10
2023-08-04T09:10:16.911Z,3.67
2023-08-04T09:18:29.898Z,3.50
2023-08-04T09:22:36.577Z,3.63
2023-08-04T09:26:44.939Z,3.70
2023-08-04T09:31:01.101Z,3.92
2023-08-04T09:35:08.441Z,3.85
2023-08-04T09:39:11.930Z,5.13
2023-08-04T09:43:26.952Z,5.20
2023-08-04T09:47:30.767Z,5.22
2023-08-04T09:51:51.043Z,5.40
2023-08-04T09:56:01.003Z,4.50
2023-08-04T10:00:11.546Z,5.03
2023-08-04T10:04:18.350Z,5.30
2023-08-04T11:42:46.034Z,2.70
2023-08-04T11:46:49.441Z,3.40
2023-08-04T11:50:55.184Z,3.13
2023-08-04T11:55:01.130Z,3.57
2023-08-04T11:59:12.134Z,4.95
2023-08-04T12:03:15.510Z,4.10
2023-08-04T12:07:18.895Z,4.40
2023-08-04T12:11:23.982Z,3.47
2023-08-04T12:15:26.832Z,3.25
2023-08-04T12:19:31.482Z,4.22
2023-08-04T12:23:34.426Z,3.70
2023-08-04T12:27:37.332Z,4.32
2023-08-04T12:31:40.846Z,4.50
2023-08-04T12:35:44.178Z,4.75
2023-08-04T12:39:47.118Z,4.78
2023-08-04T12:43:50.072Z,4.28
2023-08-04T12:47:53.362Z,4.38
2023-08-04T12:51:58.315Z,4.18
2023-08-04T12:56:01.335Z,4.07
2023-08-04T13:00:05.722Z,4.22
2023-08-04T13:04:08.734Z,4.00
2023-08-04T13:08:11.781Z,4.53
2023-08-04T13:12:15.232Z,3.97
2023-08-04T13:16:18.802Z,4.38
2023-08-04T13:20:21.877Z,4.05
2023-08-04T13:24:25.223Z,4.03
2023-08-04T13:28:28.092Z,4.00
2023-08-04T13:32:31.060Z,3.67
2023-08-04T13:36:34.020Z,4.10
2023-08-04T13:40:37.159Z,4.88
2023-08-04T13:44:42.051Z,4.55
2023-08-04T13:48:45.160Z,4.05
2023-08-04T13:52:48.404Z,4.10
2023-08-04T13:56:59.711Z,4.28
2023-08-04T14:01:05.097Z,3.80
2023-08-04T14:05:09.192Z,4.47
2023-08-04T14:09:12.565Z,4.18
2023-08-04T14:13:16.432Z,4.03
2023-08-04T14:17:19.738Z,3.85
2023-08-04T14:21:22.883Z,3.75
2023-08-04T14:25:26.559Z,3.80
2023-08-04T14:29:33.528Z,3.70
2023-08-04T14:33:36.635Z,4.35
2023-08-04T14:37:40.020Z,3.88
2023-08-04T14:41:42.964Z,3.67
2023-08-04T14:45:47.029Z,3.45
2023-08-04T14:49:49.992Z,3.15
2023-08-04T14:53:55.209Z,3.58
2023-08-04T14:57:58.225Z,3.50
2023-08-04T15:02:01.656Z,4.22
2023-08-04T15:06:20.655Z,4.78
2023-08-04T15:10:23.624Z,4.50
2023-08-04T15:14:27.511Z,4.20
2023-08-04T15:18:32.486Z,4.05
2023-08-04T15:22:36.000Z,3.72
2023-08-04T15:26:39.021Z,3.83
2023-08-04T15:30:41.995Z,3.25
2023-08-04T15:34:47.687Z,3.30
2023-08-04T15:38:50.795Z,4.07
2023-08-04T15:42:53.698Z,3.50
2023-08-04T15:46:56.831Z,3.53
2023-08-04T15:51:02.558Z,4.13
2023-08-04T15:55:12.842Z,3.28
2023-08-04T15:59:16.746Z,3.30
2023-08-04T16:03:21.044Z,3.33
2023-08-04T16:07:28.105Z,3.65
2023-08-04T16:11:32.509Z,3.50
2023-08-04T16:15:35.610Z,3.28
2023-08-04T16:19:38.448Z,3.17
2023-08-04T16:23:41.476Z,3.15
2023-08-04T16:27:44.763Z,3.10
2023-08-04T16:31:47.827Z,4.50
2023-08-04T16:35:50.877Z,3.90
2023-08-04T16:39:53.900Z,3.67
2023-08-04T16:43:56.801Z,4.00
2023-08-04T16:48:00.694Z,3.88
2023-08-04T16:52:03.841Z,4.05
2023-08-04T16:56:09.580Z,4.10
2023-08-04T17:00:13.996Z,4.47
2023-08-04T17:04:16.911Z,3.88
2023-08-04T17:08:19.825Z,4.22
2023-08-04T17:12:22.717Z,4.13
2023-08-04T17:16:26.043Z,3.13
2023-08-04T17:20:29.383Z,3.03
2023-08-04T17:24:32.587Z,3.30
2023-08-04T17:28:35.671Z,3.55
2023-08-04T17:32:39.067Z,4.05
2023-08-04T17:36:42.670Z,3.55
2023-08-04T17:40:45.650Z,3.70
2023-08-04T17:44:48.717Z,4.30
2023-08-04T17:48:52.552Z,4.75
2023-08-04T17:52:55.956Z,4.15
2023-08-04T17:57:01.707Z,4.53
2023-08-04T18:05:26.576Z,4.82
2023-08-04T18:09:29.812Z,4.70
2023-08-04T18:13:32.895Z,5.38
2023-08-04T18:17:36.622Z,4.88
2023-08-04T18:21:39.823Z,4.30
2023-08-04T18:25:42.781Z,4.18
2023-08-04T18:29:45.858Z,4.15
2023-08-04T18:33:48.836Z,4.00
2023-08-04T18:37:51.843Z,4.10
2023-08-04T18:41:55.168Z,4.20
2023-08-04T18:45:58.237Z,4.10
2023-08-04T18:50:01.148Z,4.15
2023-08-04T18:54:04.304Z,3.90
2023-08-04T18:58:14.679Z,3.85
2023-08-04T19:02:22.548Z,3.75
2023-08-04T19:06:25.511Z,4.50
2023-08-04T19:10:28.459Z,4.20
2023-08-04T19:14:39.149Z,4.15
2023-08-04T19:18:45.518Z,4.35
2023-08-04T19:26:52.530Z,4.20
2023-08-04T19:31:02.414Z,5.28
2023-08-04T19:35:08.618Z,5.28
2023-08-04T19:39:13.239Z,5.65
2023-08-04T19:43:16.070Z,5.88
2023-08-04T19:47:18.903Z,5.82
2023-08-04T19:51:22.090Z,6.38
2023-08-04T19:55:40.308Z,6.68
2023-08-04T19:59:47.153Z,6.60
2023-08-04T20:03:50.323Z,6.88
2023-08-04T20:07:53.241Z,7.88
2023-08-04T20:11:56.245Z,8.50
2023-08-04T20:16:12.986Z,7.68
2023-08-04T20:20:17.219Z,7.72
2023-08-04T20:24:28.380Z,6.97
2023-08-04T20:28:32.555Z,6.95
2023-08-04T20:37:06.461Z,6.05
2023-08-04T20:41:23.066Z,6.28
2023-08-04T20:45:33.570Z,5.90
2023-08-04T20:49:50.134Z,7.47
2023-08-04T20:54:01.405Z,6.38
2023-08-04T20:58:04.954Z,7.32
2023-08-04T21:02:13.584Z,7.97
2023-08-04T21:06:16.940Z,8.52
2023-08-04T21:10:20.043Z,7.75
2023-08-04T21:14:23.422Z,8.18
2023-08-04T21:18:26.486Z,9.45
2023-08-04T21:22:29.965Z,9.02
2023-08-04T21:26:33.015Z,8.52
2023-08-04T21:30:38.201Z,7.97
2023-08-04T21:34:41.374Z,7.85
2023-08-04T21:38:45.634Z,7.32
2023-08-04T21:42:49.591Z,8.55
2023-08-04T21:46:52.928Z,7.57
2023-08-04T21:50:55.955Z,8.73
2023-08-04T21:54:59.167Z,9.57
2023-08-04T21:59:03.054Z,10.20
2023-08-04T22:03:09.618Z,8.43
2023-08-04T22:07:12.662Z,10.82
2023-08-04T22:11:15.863Z,11.38
2023-08-04T22:15:19.424Z,12.45
2023-08-04T22:19:22.484Z,13.13
2023-08-04T22:23:26.240Z,13.90
2023-08-04T22:27:29.508Z,13.93
2023-08-04T22:31:41.072Z,13.35
2023-08-04T22:35:44.347Z,12.55
2023-08-04T22:39:47.372Z,12.50
2023-08-04T22:43:50.463Z,12.63
2023-08-04T22:47:53.596Z,13.63
2023-08-04T22:51:56.715Z,13.70
2023-08-04T22:56:00.785Z,14.30
2023-08-04T23:00:05.121Z,14.50
2023-08-04T23:04:08.472Z,14.48
2023-08-04T23:08:11.581Z,14.43
2023-08-04T23:12:14.680Z,13.90
2023-08-04T23:16:18.277Z,13.43
2023-08-04T23:20:21.858Z,13.30
2023-08-04T23:24:24.764Z,14.43
2023-08-04T23:28:27.791Z,12.93
2023-08-04T23:32:31.420Z,12.70
2023-08-04T23:36:34.607Z,12.30
2023-08-04T23:40:37.871Z,10.90
2023-08-04T23:44:41.237Z,11.18
2023-08-04T23:48:44.397Z,10.90
2023-08-04T23:52:47.611Z,11.00
2023-08-04T23:56:50.935Z,10.18
